map of BRW home
BRW - Airport
Location
City:  Barrow, Alaska, United States
Name:Wiley Post-Will Rogers Memorial Airport
ICAO:PABR
IATA:BRW
FAA LID:BRW

Details
Type:Airport (Part 139 Class I)
Use:Public/Civil
Latitude:7117'05"N (71.284861)
Longitude:15646'07"W (-156.768582)
Datum:WGS 1984
Elevation:48 ft (15 m)
Variation:13.98E (WMM2015 magnetic declination)
-0.54 annual change
Runways:1
Longest:7100 × 150 ft (2164 × 45.5 m), paved

Time
Time Zone:UTC-9 (DST-8)
Local Time:

Weather
METAR:PABR 161553Z 04005KT 6SM HZ OVC032 M23/M26 A2958 RMK SNB31E40 SLP020 P0000 T12331261 VIA AUTODIAL
TAF:PABR 161122Z 1612/1712 09008KT P6SM SCT003 BKN045 OVC070
FM162300 36007KT 6SM BR BKN015

Related Locations
Nearby:
Farthest:NZSP: 11131 mi / 17914 km
Amundsen-Scott South Pole Station [Jack F. Paulus Skiway], AQ

Find:

   beyond  
but within

Other Information
Maps:
NOTAMs:
Links:
Sources:

  
  • flag of United States
  • flag of Alaska
  

Sectional Chart

Flight Planning
at skyvector.com

Satellite Image

Google Maps Satellite view

 

Copyright © 2004-2018 Karl L. Swartz. All rights reserved.
The Great Circle Mapper name and logo are trademarks of the Great Circle Mapper.
All other trademarks mentioned herein belong to their respective owners.
Please see credits for attibutions and further copyright information.

  Follow gcmap on Facebook Follow gcmap on Twitter Follow gcmap on Google+ GCmap on LinkedIn

hCard Microformat

Geo Microformat